createdAt,value
2023-01-05T00:00:56.819Z,7.38
2023-01-05T00:01:58.706Z,7.41
2023-01-05T00:03:00.490Z,7.41
2023-01-05T00:04:02.569Z,7.43
2023-01-05T00:05:04.433Z,7.42
2023-01-05T00:06:08.028Z,7.44
2023-01-05T00:07:09.809Z,7.40
2023-01-05T00:08:11.956Z,7.43
2023-01-05T00:09:15.764Z,7.43
2023-01-05T00:10:35.893Z,7.39
2023-01-05T00:11:55.954Z,7.39
2023-01-05T00:13:16.254Z,7.41
2023-01-05T00:14:37.971Z,7.43
2023-01-05T00:15:58.216Z,7.40
2023-01-05T00:17:18.415Z,7.41
2023-01-05T00:18:38.408Z,7.45
2023-01-05T00:19:58.543Z,7.46
2023-01-05T00:21:21.218Z,7.47
2023-01-05T00:22:33.072Z,7.49
2023-01-05T00:23:34.915Z,7.49
2023-01-05T00:24:36.690Z,7.51
2023-01-05T00:25:39.890Z,7.50
2023-01-05T00:26:41.723Z,7.50
2023-01-05T00:27:45.031Z,7.49
2023-01-05T00:28:46.814Z,7.49
2023-01-05T00:29:48.618Z,7.48
2023-01-05T00:30:50.487Z,7.46
2023-01-05T00:31:52.353Z,7.44
2023-01-05T00:32:54.625Z,7.44
2023-01-05T00:33:56.362Z,7.39
2023-01-05T00:34:58.825Z,7.34
2023-01-05T00:36:00.708Z,7.33
2023-01-05T00:37:02.471Z,7.35
2023-01-05T00:38:04.509Z,7.36
2023-01-05T00:39:06.388Z,7.30
2023-01-05T00:40:10.303Z,7.26
2023-01-05T00:41:12.173Z,7.20
2023-01-05T00:42:14.032Z,7.22
2023-01-05T00:43:15.939Z,7.24
2023-01-05T00:44:17.759Z,7.27
2023-01-05T00:45:19.719Z,7.30
2023-01-05T00:46:21.623Z,7.34
2023-01-05T00:47:23.660Z,7.33
2023-01-05T00:48:25.473Z,7.32
2023-01-05T00:49:27.268Z,7.30
2023-01-05T00:50:29.093Z,7.25
2023-01-05T00:51:30.891Z,7.22
2023-01-05T00:52:32.750Z,7.19
2023-01-05T00:53:34.573Z,7.17
2023-01-05T00:54:36.519Z,7.19
2023-01-05T00:55:38.297Z,7.23
2023-01-05T00:56:40.134Z,7.25
2023-01-05T00:57:42.035Z,7.26
2023-01-05T00:58:43.866Z,7.26
2023-01-05T00:59:45.730Z,7.29
2023-01-05T01:00:47.896Z,7.31
2023-01-05T01:01:51.142Z,7.31
2023-01-05T01:02:53.555Z,7.30
2023-01-05T01:03:56.272Z,7.24
2023-01-05T01:04:58.117Z,7.25
2023-01-05T01:05:59.987Z,7.24
2023-01-05T01:07:02.976Z,7.24
2023-01-05T01:08:04.941Z,7.26
2023-01-05T01:09:06.874Z,7.29
2023-01-05T01:10:09.121Z,7.32
2023-01-05T01:11:11.557Z,7.33
2023-01-05T01:12:13.406Z,7.36
2023-01-05T01:13:15.149Z,7.38
2023-01-05T01:14:17.077Z,7.39
2023-01-05T01:15:18.896Z,7.40
2023-01-05T01:16:20.857Z,7.40
2023-01-05T01:17:22.700Z,7.40
2023-01-05T01:18:24.657Z,7.38
2023-01-05T01:19:27.088Z,7.36
2023-01-05T01:20:28.896Z,7.33
2023-01-05T01:21:30.722Z,7.34
2023-01-05T01:22:32.527Z,7.35
2023-01-05T01:23:34.553Z,7.35
2023-01-05T01:24:36.464Z,7.36
2023-01-05T01:25:39.200Z,7.39
2023-01-05T01:26:41.054Z,7.39
2023-01-05T01:27:42.857Z,7.41
2023-01-05T01:28:46.776Z,7.45
2023-01-05T01:29:48.923Z,7.47
2023-01-05T01:30:51.355Z,7.47
2023-01-05T01:31:53.701Z,7.46
2023-01-05T01:32:55.523Z,7.41
2023-01-05T01:33:57.427Z,7.42
2023-01-05T01:34:59.379Z,7.40
2023-01-05T01:36:04.428Z,7.36
2023-01-05T01:37:06.211Z,7.32
2023-01-05T01:38:08.129Z,7.29
2023-01-05T01:39:10.418Z,7.29
2023-01-05T01:40:13.526Z,7.29
2023-01-05T01:41:15.340Z,7.33
2023-01-05T01:42:17.366Z,7.36
2023-01-05T01:43:20.529Z,7.37
2023-01-05T01:44:41.054Z,7.38
2023-01-05T01:45:43.642Z,7.38
2023-01-05T01:46:45.590Z,7.39
2023-01-05T01:47:55.586Z,7.42
2023-01-05T01:49:08.660Z,7.43
2023-01-05T01:50:19.419Z,7.45
2023-01-05T01:51:25.239Z,7.42
2023-01-05T01:52:28.282Z,7.33
2023-01-05T01:53:32.308Z,7.32
2023-01-05T01:54:34.090Z,7.35
2023-01-05T01:55:36.573Z,7.35
2023-01-05T01:56:40.840Z,7.34
2023-01-05T01:57:43.528Z,7.37
2023-01-05T01:58:45.606Z,7.39
2023-01-05T01:59:47.504Z,7.43
2023-01-05T02:00:49.373Z,7.45
2023-01-05T02:01:53.006Z,7.47
2023-01-05T02:02:55.942Z,7.49
2023-01-05T02:03:58.299Z,7.50
2023-01-05T02:05:04.810Z,7.50
2023-01-05T02:06:07.405Z,7.48
2023-01-05T02:07:11.050Z,7.49
2023-01-05T02:08:13.950Z,7.45
2023-01-05T02:09:15.929Z,7.42
2023-01-05T02:10:19.416Z,7.43
2023-01-05T02:11:21.230Z,7.45
2023-01-05T02:12:32.189Z,7.48
2023-01-05T02:13:52.314Z,7.50
2023-01-05T02:15:06.004Z,7.46
2023-01-05T02:16:29.538Z,7.48
2023-01-05T02:17:50.094Z,7.58
2023-01-05T02:18:51.868Z,8.15
2023-01-05T02:19:53.619Z,8.42
2023-01-05T02:20:55.358Z,8.41
2023-01-05T02:22:05.937Z,8.37
2023-01-05T02:23:26.582Z,8.33
2023-01-05T02:24:46.964Z,8.20
2023-01-05T02:26:07.126Z,8.16
2023-01-05T02:27:15.083Z,8.17
2023-01-05T02:28:31.368Z,8.14
2023-01-05T02:29:50.916Z,8.09
2023-01-05T02:31:01.489Z,8.12
2023-01-05T02:32:32.736Z,8.17
2023-01-05T02:33:56.247Z,8.23
2023-01-05T02:35:04.125Z,8.25
2023-01-05T02:36:11.920Z,8.25
2023-01-05T02:37:43.252Z,8.29
2023-01-05T02:39:17.682Z,8.32
2023-01-05T02:40:22.562Z,8.33
2023-01-05T02:41:37.989Z,8.35
2023-01-05T02:42:42.244Z,8.38
2023-01-05T02:43:45.190Z,8.43
2023-01-05T02:44:47.128Z,8.50
2023-01-05T02:45:49.683Z,8.54
2023-01-05T02:47:01.641Z,8.55
2023-01-05T02:48:05.060Z,8.57
2023-01-05T02:49:07.569Z,8.58
2023-01-05T02:50:13.688Z,8.63
2023-01-05T02:51:19.811Z,8.71
2023-01-05T02:52:22.313Z,9.01
2023-01-05T02:53:27.098Z,9.30
2023-01-05T02:54:38.843Z,9.44
2023-01-05T02:55:49.820Z,9.46
2023-01-05T02:56:56.172Z,9.44
2023-01-05T02:58:04.333Z,9.41
2023-01-05T02:59:06.121Z,9.42
2023-01-05T03:00:09.666Z,9.37
2023-01-05T03:01:23.919Z,9.37
2023-01-05T03:02:29.280Z,9.35
2023-01-05T03:03:43.201Z,9.36
2023-01-05T03:04:48.039Z,9.34
2023-01-05T03:06:13.177Z,9.31
2023-01-05T03:07:18.090Z,9.27
2023-01-05T03:08:30.578Z,9.25
2023-01-05T03:09:39.170Z,9.23
2023-01-05T03:11:10.179Z,9.23
2023-01-05T03:12:45.873Z,9.20
2023-01-05T03:13:50.110Z,9.19
2023-01-05T03:14:57.997Z,9.17
2023-01-05T03:16:02.558Z,9.13
2023-01-05T03:17:07.705Z,9.11
2023-01-05T03:18:14.278Z,9.11
2023-01-05T03:19:36.427Z,9.12
2023-01-05T03:20:41.483Z,9.12
2023-01-05T03:22:01.672Z,9.12
2023-01-05T03:23:24.395Z,9.13
2023-01-05T03:24:44.656Z,9.14
2023-01-05T03:26:06.322Z,9.11
2023-01-05T03:27:26.367Z,9.08
2023-01-05T03:28:49.123Z,9.06
2023-01-05T03:30:10.404Z,9.05
2023-01-05T03:31:36.590Z,9.06
2023-01-05T03:33:02.474Z,9.06
2023-01-05T03:34:44.864Z,9.06
2023-01-05T03:35:48.783Z,9.08
2023-01-05T03:36:53.375Z,9.08
2023-01-05T03:38:01.507Z,9.11
2023-01-05T03:39:04.584Z,9.11
2023-01-05T03:40:09.327Z,9.12
2023-01-05T03:41:13.820Z,9.12
2023-01-05T03:42:16.509Z,9.15
2023-01-05T03:43:18.747Z,9.18
2023-01-05T03:44:21.071Z,9.19
2023-01-05T03:45:23.941Z,9.20
2023-01-05T03:46:25.939Z,9.19
2023-01-05T03:47:27.767Z,9.18
2023-01-05T03:48:29.844Z,9.19
2023-01-05T03:49:31.755Z,9.18
2023-01-05T03:50:34.154Z,9.16
2023-01-05T03:51:41.516Z,9.14
2023-01-05T03:52:43.995Z,9.13
2023-01-05T03:53:45.922Z,9.14
2023-01-05T03:54:47.650Z,9.15
2023-01-05T03:55:49.472Z,9.17
2023-01-05T03:56:51.218Z,9.19
2023-01-05T03:57:53.189Z,9.20
2023-01-05T03:58:55.012Z,9.21
2023-01-05T03:59:56.825Z,9.21
2023-01-05T04:00:58.618Z,9.22
2023-01-05T04:02:00.536Z,9.23
2023-01-05T04:03:02.677Z,9.23
2023-01-05T04:04:04.734Z,9.19
2023-01-05T04:05:06.862Z,9.17
2023-01-05T04:06:08.871Z,9.17
2023-01-05T04:07:10.682Z,9.15
2023-01-05T04:08:12.437Z,9.13
2023-01-05T04:09:14.513Z,9.10
2023-01-05T04:10:16.438Z,9.07
2023-01-05T04:11:19.322Z,9.07
2023-01-05T04:12:21.306Z,9.09
2023-01-05T04:13:23.281Z,9.10
2023-01-05T04:14:25.186Z,9.12
2023-01-05T04:15:27.037Z,9.14
2023-01-05T04:16:29.041Z,9.15
2023-01-05T04:17:31.041Z,9.12
2023-01-05T04:18:32.859Z,9.13
2023-01-05T04:19:34.735Z,9.11
2023-01-05T04:20:36.539Z,9.08
2023-01-05T04:21:38.537Z,9.08
2023-01-05T04:22:40.455Z,9.07
2023-01-05T04:23:42.235Z,9.09
2023-01-05T04:24:44.159Z,9.08
2023-01-05T04:25:47.153Z,9.05
2023-01-05T04:26:48.902Z,9.02
2023-01-05T04:27:50.725Z,9.01
2023-01-05T04:28:52.615Z,9.00
2023-01-05T04:29:54.471Z,9.00
2023-01-05T04:30:56.835Z,9.04
2023-01-05T04:31:58.663Z,9.08
2023-01-05T04:33:00.571Z,9.09
2023-01-05T04:34:02.469Z,9.07
2023-01-05T04:35:11.007Z,9.07
2023-01-05T04:36:13.467Z,9.05
2023-01-05T04:37:15.435Z,9.04
2023-01-05T04:38:17.315Z,9.03
2023-01-05T04:39:19.243Z,9.00
2023-01-05T04:40:21.269Z,8.98
2023-01-05T04:41:23.104Z,8.98
2023-01-05T04:42:25.393Z,8.97
2023-01-05T04:43:27.202Z,8.98
2023-01-05T04:44:29.016Z,9.01
2023-01-05T04:45:31.000Z,9.02
2023-01-05T04:46:33.064Z,9.01
2023-01-05T04:47:34.966Z,9.02
2023-01-05T04:48:36.815Z,9.04
2023-01-05T04:49:38.621Z,9.04
2023-01-05T04:50:40.536Z,9.05
2023-01-05T04:51:42.407Z,9.06
2023-01-05T04:52:44.267Z,9.06
2023-01-05T04:53:46.070Z,9.07
2023-01-05T04:54:47.872Z,9.08
2023-01-05T04:55:50.321Z,9.09
2023-01-05T04:56:52.175Z,9.10
2023-01-05T04:57:53.985Z,9.08
2023-01-05T04:58:55.985Z,9.07
2023-01-05T04:59:57.836Z,9.05
2023-01-05T05:00:59.613Z,9.06
2023-01-05T05:02:01.481Z,9.06
2023-01-05T05:03:04.086Z,9.07
2023-01-05T05:04:06.179Z,9.06
2023-01-05T05:05:08.232Z,9.04
2023-01-05T05:06:10.179Z,9.01
2023-01-05T05:07:12.042Z,8.98
2023-01-05T05:08:14.646Z,8.98
2023-01-05T05:09:16.396Z,9.01
2023-01-05T05:10:18.377Z,9.04
2023-01-05T05:11:20.267Z,9.03
2023-01-05T05:12:22.191Z,9.00
2023-01-05T05:13:23.993Z,8.96
2023-01-05T05:14:26.455Z,8.93
2023-01-05T05:15:28.251Z,8.90
2023-01-05T05:16:30.052Z,8.88
2023-01-05T05:17:31.980Z,8.88
2023-01-05T05:18:33.786Z,8.82
2023-01-05T05:19:35.569Z,8.79
2023-01-05T05:20:38.471Z,8.75
2023-01-05T05:21:40.368Z,8.76
2023-01-05T05:22:42.219Z,8.78
2023-01-05T05:23:44.095Z,8.75
2023-01-05T05:24:45.895Z,8.69
2023-01-05T05:25:51.469Z,8.66
2023-01-05T05:26:53.261Z,8.66
2023-01-05T05:27:59.214Z,8.66
2023-01-05T05:29:01.061Z,8.66
2023-01-05T05:30:02.832Z,8.65
2023-01-05T05:31:04.838Z,8.61
2023-01-05T05:32:06.610Z,8.56
2023-01-05T05:33:08.434Z,8.57
2023-01-05T05:34:10.308Z,8.58
2023-01-05T05:35:12.342Z,8.60
2023-01-05T05:36:14.770Z,8.61
2023-01-05T05:37:16.951Z,8.57
2023-01-05T05:38:18.860Z,8.57
2023-01-05T05:39:20.966Z,8.58
2023-01-05T05:40:22.737Z,8.58
2023-01-05T05:41:24.790Z,8.58
2023-01-05T05:42:26.681Z,8.58
2023-01-05T05:43:28.534Z,8.59
2023-01-05T05:44:30.469Z,8.61
2023-01-05T05:45:32.317Z,8.64
2023-01-05T05:46:34.836Z,8.66
2023-01-05T05:47:36.706Z,8.68
2023-01-05T05:48:38.529Z,8.69
2023-01-05T05:49:40.419Z,8.69
2023-01-05T05:50:42.281Z,8.71
2023-01-05T05:51:44.240Z,8.73
2023-01-05T05:52:46.042Z,8.75
2023-01-05T05:53:47.825Z,8.75
2023-01-05T05:54:49.651Z,8.75
2023-01-05T05:55:51.904Z,8.76
2023-01-05T05:56:53.808Z,8.76
2023-01-05T05:57:55.628Z,8.76
2023-01-05T05:59:01.248Z,8.76
2023-01-05T06:00:04.378Z,8.76
2023-01-05T06:01:06.637Z,8.78
2023-01-05T06:02:08.702Z,8.79
2023-01-05T06:03:10.763Z,8.80
2023-01-05T06:04:12.676Z,8.79
2023-01-05T06:05:14.628Z,8.78
2023-01-05T06:06:16.379Z,8.76
2023-01-05T06:07:18.286Z,8.74
2023-01-05T06:08:20.071Z,8.73
2023-01-05T06:09:21.851Z,8.73
2023-01-05T06:10:23.802Z,8.74
2023-01-05T06:11:25.717Z,8.73
2023-01-05T06:12:27.642Z,8.72
2023-01-05T06:13:29.497Z,8.72
2023-01-05T06:14:31.251Z,8.74
2023-01-05T06:15:33.156Z,8.73
2023-01-05T06:16:35.093Z,8.67
2023-01-05T06:17:37.093Z,8.65
2023-01-05T06:18:38.931Z,8.62
2023-01-05T06:19:40.764Z,8.61
2023-01-05T06:20:42.730Z,8.62
2023-01-05T06:21:44.678Z,8.66
2023-01-05T06:22:46.541Z,8.68
2023-01-05T06:23:48.409Z,8.67
2023-01-05T06:24:50.454Z,8.64
2023-01-05T06:25:52.417Z,8.59
2023-01-05T06:26:54.194Z,8.61
2023-01-05T06:27:56.009Z,8.61
2023-01-05T06:28:57.777Z,8.60
2023-01-05T06:29:59.688Z,8.58
2023-01-05T06:31:01.516Z,8.59
2023-01-05T06:32:03.527Z,8.61
2023-01-05T06:33:05.408Z,8.64
2023-01-05T06:34:07.373Z,8.66
2023-01-05T06:35:09.377Z,8.67
2023-01-05T06:36:11.201Z,8.64
2023-01-05T06:37:13.062Z,8.61
2023-01-05T06:38:16.395Z,8.60
2023-01-05T06:39:18.189Z,8.59
2023-01-05T06:40:20.216Z,8.63
2023-01-05T06:41:22.008Z,8.64
2023-01-05T06:42:24.073Z,8.65
2023-01-05T06:43:25.944Z,8.66
2023-01-05T06:44:27.831Z,8.69
2023-01-05T06:45:29.699Z,8.71
2023-01-05T06:46:31.730Z,8.74
2023-01-05T06:47:33.849Z,8.73
2023-01-05T06:48:35.662Z,8.74
2023-01-05T06:49:37.434Z,8.73
2023-01-05T06:50:39.315Z,8.71
2023-01-05T06:51:41.266Z,8.74
2023-01-05T06:52:43.165Z,8.75
2023-01-05T06:53:45.022Z,8.76
2023-01-05T06:54:46.871Z,8.74
2023-01-05T06:55:48.790Z,8.72
2023-01-05T06:56:50.575Z,8.71
2023-01-05T06:57:55.687Z,8.73
2023-01-05T06:59:02.367Z,8.76
2023-01-05T07:00:09.145Z,8.79
2023-01-05T07:01:11.114Z,8.85
2023-01-05T07:02:14.562Z,8.89
2023-01-05T07:03:16.644Z,8.92
2023-01-05T07:04:18.725Z,8.95
2023-01-05T07:05:20.571Z,8.97
2023-01-05T07:06:22.499Z,8.98
2023-01-05T07:07:24.353Z,9.00
2023-01-05T07:08:26.341Z,9.09
2023-01-05T07:09:28.116Z,9.16
2023-01-05T07:10:30.514Z,9.23
2023-01-05T07:11:32.483Z,9.38
2023-01-05T07:12:34.433Z,9.50
2023-01-05T07:13:36.897Z,9.54
2023-01-05T07:14:38.690Z,9.56
2023-01-05T07:15:40.509Z,9.58
2023-01-05T07:16:42.484Z,9.59
2023-01-05T07:17:44.628Z,9.60
2023-01-05T07:18:46.803Z,9.60
2023-01-05T07:19:48.627Z,9.63
2023-01-05T07:20:50.469Z,9.64
2023-01-05T07:21:56.770Z,9.64
2023-01-05T07:22:59.171Z,9.66
2023-01-05T07:24:01.027Z,9.68
2023-01-05T07:25:02.872Z,9.68
2023-01-05T07:26:08.966Z,9.67
2023-01-05T07:27:10.883Z,9.66
2023-01-05T07:28:12.821Z,9.65
2023-01-05T07:29:14.716Z,9.67
2023-01-05T07:30:16.575Z,9.67
2023-01-05T07:31:18.467Z,9.66
2023-01-05T07:32:20.527Z,9.67
2023-01-05T07:33:22.302Z,9.68
2023-01-05T07:34:24.298Z,9.70
2023-01-05T07:35:26.244Z,9.73
2023-01-05T07:36:28.135Z,9.75
2023-01-05T07:37:30.004Z,9.79
2023-01-05T07:38:32.414Z,9.84
2023-01-05T07:39:34.453Z,9.96
2023-01-05T07:40:37.072Z,10.04
2023-01-05T07:41:38.965Z,10.04
2023-01-05T07:42:41.239Z,10.04
2023-01-05T07:43:43.053Z,10.05
2023-01-05T07:44:45.896Z,10.05
2023-01-05T07:45:48.864Z,10.05
2023-01-05T07:46:50.868Z,10.05
2023-01-05T07:47:52.781Z,10.07
2023-01-05T07:48:54.653Z,10.08
2023-01-05T07:49:56.515Z,10.09
2023-01-05T07:51:05.199Z,10.08
2023-01-05T07:52:07.075Z,10.07
2023-01-05T07:53:08.868Z,10.07
2023-01-05T07:54:10.632Z,10.08
2023-01-05T07:55:12.471Z,10.07
2023-01-05T07:56:14.629Z,10.07
2023-01-05T07:57:16.480Z,10.09
2023-01-05T07:58:18.323Z,10.11
2023-01-05T07:59:20.091Z,10.13
2023-01-05T08:00:22.086Z,10.12
2023-01-05T08:01:24.045Z,10.13
2023-01-05T08:02:32.371Z,10.14
2023-01-05T08:03:36.017Z,10.13
2023-01-05T08:04:37.985Z,10.13
2023-01-05T08:05:39.902Z,10.13
2023-01-05T08:06:41.728Z,10.14
2023-01-05T08:07:43.539Z,10.15
2023-01-05T08:08:45.651Z,10.16
2023-01-05T08:10:06.163Z,10.20
2023-01-05T08:11:09.096Z,10.23
2023-01-05T08:12:10.828Z,10.25
2023-01-05T08:13:31.228Z,10.25
2023-01-05T08:14:33.216Z,10.31
2023-01-05T08:15:35.074Z,10.33
2023-01-05T08:16:36.872Z,10.35
2023-01-05T08:17:41.354Z,10.37
2023-01-05T08:18:43.161Z,10.38
2023-01-05T08:19:44.991Z,10.41
2023-01-05T08:20:52.746Z,10.48
2023-01-05T08:21:54.593Z,10.49
2023-01-05T08:22:56.359Z,10.49
2023-01-05T08:24:00.013Z,10.46
2023-01-05T08:25:01.847Z,10.46
2023-01-05T08:26:05.935Z,10.46
2023-01-05T08:27:08.110Z,10.48
2023-01-05T08:28:09.939Z,10.49
2023-01-05T08:29:11.692Z,10.53
2023-01-05T08:30:14.253Z,10.55
2023-01-05T08:31:18.194Z,10.55
2023-01-05T08:32:20.234Z,10.54
2023-01-05T08:33:22.028Z,10.55
2023-01-05T08:34:23.825Z,10.53
2023-01-05T08:35:25.622Z,10.52
2023-01-05T08:36:27.437Z,10.50
2023-01-05T08:37:29.382Z,10.50
2023-01-05T08:38:31.213Z,10.48
2023-01-05T08:39:33.028Z,10.47
2023-01-05T08:40:35.429Z,10.48
2023-01-05T08:41:38.349Z,10.48
2023-01-05T08:42:41.127Z,10.50
2023-01-05T08:43:43.051Z,10.48
2023-01-05T08:44:44.891Z,10.46
2023-01-05T08:45:50.525Z,10.46
2023-01-05T08:46:52.482Z,10.48
2023-01-05T08:47:54.361Z,10.44
2023-01-05T08:48:57.391Z,10.45
2023-01-05T08:49:59.200Z,10.44
2023-01-05T08:51:03.903Z,10.47
2023-01-05T08:52:05.749Z,10.50
2023-01-05T08:53:07.619Z,10.54
2023-01-05T08:54:09.451Z,10.56
2023-01-05T08:55:11.294Z,10.56
2023-01-05T08:56:13.167Z,10.59
2023-01-05T08:57:15.114Z,10.61
2023-01-05T08:58:17.027Z,10.63
2023-01-05T08:59:19.084Z,10.66
2023-01-05T09:00:22.398Z,10.67
2023-01-05T09:01:24.348Z,10.72
2023-01-05T09:02:26.731Z,10.76
2023-01-05T09:03:28.708Z,10.75
2023-01-05T09:04:30.557Z,10.75
2023-01-05T09:05:32.424Z,10.78
2023-01-05T09:06:34.584Z,10.77
2023-01-05T09:07:36.393Z,10.76
2023-01-05T09:08:39.382Z,10.84
2023-01-05T09:09:41.217Z,10.86
2023-01-05T09:10:43.041Z,10.85
2023-01-05T09:11:44.812Z,10.87
2023-01-05T09:12:46.606Z,10.93
2023-01-05T09:13:49.939Z,10.93
2023-01-05T09:14:51.786Z,10.93
2023-01-05T09:15:53.595Z,10.93
2023-01-05T09:17:07.129Z,10.94
2023-01-05T09:18:09.837Z,10.95
2023-01-05T09:19:11.996Z,10.96
2023-01-05T09:20:13.769Z,10.95
2023-01-05T09:21:15.559Z,10.94
2023-01-05T09:22:17.555Z,10.96
2023-01-05T09:23:19.364Z,10.97
2023-01-05T09:24:21.216Z,10.96
2023-01-05T09:25:23.097Z,10.96
2023-01-05T09:26:24.903Z,10.93
2023-01-05T09:27:26.719Z,10.94
2023-01-05T09:28:28.518Z,10.97
2023-01-05T09:29:30.334Z,11.07
2023-01-05T09:30:37.983Z,11.16
2023-01-05T09:31:44.272Z,11.19
2023-01-05T09:32:46.106Z,11.21
2023-01-05T09:33:48.109Z,11.23
2023-01-05T09:34:50.124Z,11.28
2023-01-05T09:35:57.323Z,11.31
2023-01-05T09:36:59.206Z,11.36
2023-01-05T09:38:01.001Z,11.38
2023-01-05T09:39:04.724Z,11.36
2023-01-05T09:40:06.881Z,11.37
2023-01-05T09:41:08.706Z,11.37
2023-01-05T09:42:14.011Z,11.37
2023-01-05T09:43:24.962Z,11.39
2023-01-05T09:44:29.928Z,11.39
2023-01-05T09:45:31.709Z,11.38
2023-01-05T09:46:39.598Z,11.39
2023-01-05T09:47:46.971Z,11.41
2023-01-05T09:48:52.664Z,11.41
2023-01-05T09:49:55.038Z,11.42
2023-01-05T09:50:56.965Z,11.42
2023-01-05T09:52:01.107Z,11.44
2023-01-05T09:53:03.569Z,11.45
2023-01-05T09:54:05.381Z,11.45
2023-01-05T09:55:13.314Z,11.45
2023-01-05T09:58:01.070Z,11.43
2023-01-05T09:59:08.299Z,11.45
2023-01-05T10:00:15.253Z,11.51
2023-01-05T10:01:17.936Z,11.54
2023-01-05T10:02:22.911Z,11.54
2023-01-05T10:04:01.797Z,11.54
2023-01-05T10:04:48.140Z,11.54
2023-01-05T10:05:50.665Z,11.57
2023-01-05T10:07:07.415Z,11.59
2023-01-05T10:08:16.949Z,11.60
2023-01-05T10:09:20.987Z,11.60
2023-01-05T10:10:41.637Z,11.60
2023-01-05T10:12:20.881Z,11.61
2023-01-05T10:13:26.748Z,11.63
2023-01-05T10:14:38.362Z,11.64
2023-01-05T10:15:40.201Z,11.65
2023-01-05T10:16:44.334Z,11.64
2023-01-05T10:17:47.049Z,11.65
2023-01-05T10:18:49.039Z,11.66
2023-01-05T10:19:51.412Z,11.67
2023-01-05T10:21:05.773Z,11.66
2023-01-05T10:22:16.431Z,11.65
2023-01-05T10:23:21.787Z,11.65
2023-01-05T10:24:29.919Z,11.65
2023-01-05T10:26:01.033Z,11.63
2023-01-05T10:27:24.826Z,11.63
2023-01-05T10:29:03.164Z,11.63
2023-01-05T10:30:14.004Z,11.65
2023-01-05T10:31:15.852Z,11.67
2023-01-05T10:32:20.386Z,11.69
2023-01-05T10:33:28.167Z,11.68
2023-01-05T10:34:43.009Z,11.66
2023-01-05T10:36:00.553Z,11.66
2023-01-05T10:37:21.522Z,11.68
2023-01-05T10:38:23.718Z,11.68
2023-01-05T10:39:28.135Z,11.70
2023-01-05T10:40:36.079Z,11.71
2023-01-05T10:41:53.205Z,11.72
2023-01-05T10:43:04.272Z,11.71
2023-01-05T10:44:26.254Z,11.71
2023-01-05T10:45:30.261Z,11.72
2023-01-05T10:46:39.952Z,11.75
2023-01-05T10:47:45.512Z,11.78
2023-01-05T10:48:48.163Z,11.78
2023-01-05T10:49:50.259Z,11.76
2023-01-05T10:50:53.324Z,11.75
2023-01-05T10:51:58.442Z,11.74
2023-01-05T10:53:01.977Z,11.74
2023-01-05T10:54:05.107Z,11.73
2023-01-05T10:55:13.482Z,11.72
2023-01-05T10:56:16.819Z,11.70
2023-01-05T10:57:35.371Z,11.69
2023-01-05T10:58:39.101Z,11.68
2023-01-05T10:59:59.932Z,11.68
2023-01-05T11:01:04.289Z,11.67
2023-01-05T11:02:12.470Z,11.69
2023-01-05T11:03:17.325Z,11.69
2023-01-05T11:04:36.436Z,11.68
2023-01-05T11:05:42.023Z,11.67
2023-01-05T11:06:43.871Z,11.68
2023-01-05T11:07:53.274Z,11.69
2023-01-05T11:08:55.328Z,11.71
2023-01-05T11:09:57.331Z,11.73
2023-01-05T11:11:01.091Z,11.72
2023-01-05T11:12:03.578Z,11.72
2023-01-05T11:13:19.142Z,11.71
2023-01-05T11:14:21.317Z,11.72
2023-01-05T11:15:23.388Z,11.72
2023-01-05T11:16:34.894Z,11.74
2023-01-05T11:17:38.528Z,11.75
2023-01-05T11:18:59.225Z,11.75
2023-01-05T11:20:01.439Z,11.79
2023-01-05T11:21:11.087Z,11.85
2023-01-05T11:22:28.025Z,11.85
2023-01-05T11:23:38.270Z,11.82
2023-01-05T11:24:40.721Z,11.77
2023-01-05T11:25:42.666Z,11.78
2023-01-05T11:26:48.933Z,11.78
2023-01-05T11:28:05.986Z,11.78
2023-01-05T11:29:13.567Z,11.74
2023-01-05T11:30:15.390Z,11.69
2023-01-05T11:31:17.434Z,11.68
2023-01-05T11:32:19.306Z,11.67
2023-01-05T11:33:26.116Z,11.69
2023-01-05T11:34:34.326Z,11.68
2023-01-05T11:35:38.440Z,11.68
2023-01-05T11:36:40.723Z,11.66
2023-01-05T11:37:44.587Z,11.63
2023-01-05T11:38:51.739Z,11.59
2023-01-05T11:39:55.478Z,11.56
2023-01-05T11:40:58.358Z,11.51
2023-01-05T11:42:11.654Z,11.49
2023-01-05T11:43:13.722Z,11.49
2023-01-05T11:44:21.623Z,11.50
2023-01-05T11:45:25.365Z,11.50
2023-01-05T11:46:40.516Z,11.47
2023-01-05T11:47:47.400Z,11.43
2023-01-05T11:48:54.228Z,11.39
2023-01-05T11:50:08.729Z,11.29
2023-01-05T11:51:31.373Z,11.15
2023-01-05T11:52:36.201Z,10.98
2023-01-05T11:53:39.757Z,10.84
2023-01-05T11:54:41.595Z,10.74
2023-01-05T11:55:43.393Z,10.64
2023-01-05T11:56:45.261Z,10.55
2023-01-05T11:57:48.030Z,10.47
2023-01-05T11:58:50.968Z,10.42
2023-01-05T11:59:54.475Z,10.34
2023-01-05T12:01:14.532Z,10.25
2023-01-05T12:02:28.529Z,10.20
2023-01-05T12:03:42.562Z,10.18
2023-01-05T12:04:55.298Z,10.16
2023-01-05T12:05:58.736Z,10.16
2023-01-05T12:07:09.543Z,10.15
2023-01-05T12:08:15.834Z,10.11
2023-01-05T12:09:32.654Z,10.05
2023-01-05T12:10:55.741Z,9.99
2023-01-05T12:12:04.635Z,9.96
2023-01-05T12:13:12.819Z,9.97
2023-01-05T12:14:14.603Z,10.00
2023-01-05T12:15:34.265Z,9.99
2023-01-05T12:16:45.703Z,9.97
2023-01-05T12:17:53.314Z,9.95
2023-01-05T12:19:24.576Z,10.00
2023-01-05T12:20:44.863Z,10.00
2023-01-05T12:21:58.976Z,9.99
2023-01-05T12:23:22.593Z,9.99
2023-01-05T12:24:32.235Z,9.96
2023-01-05T12:25:33.975Z,9.92
2023-01-05T12:26:43.696Z,9.90
2023-01-05T12:27:54.340Z,9.90
2023-01-05T12:34:08.493Z,9.75
2023-01-05T12:35:17.826Z,9.73
2023-01-05T12:36:27.052Z,9.73
2023-01-05T12:37:28.793Z,9.65
2023-01-05T12:38:49.415Z,9.65
2023-01-05T12:39:51.218Z,9.66
2023-01-05T12:41:08.412Z,9.68
2023-01-05T12:42:22.282Z,9.67
2023-01-05T12:43:42.911Z,9.66
2023-01-05T12:45:03.253Z,9.64
2023-01-05T12:46:25.680Z,9.66
2023-01-05T12:47:37.298Z,9.65
2023-01-05T12:48:42.297Z,9.63
2023-01-05T12:49:50.261Z,9.58
2023-01-05T12:51:18.300Z,9.56
2023-01-05T12:52:33.153Z,9.54
2023-01-05T12:53:40.689Z,9.51
2023-01-05T12:54:46.681Z,9.49
2023-01-05T12:55:56.738Z,9.49
2023-01-05T12:57:06.476Z,9.51
2023-01-05T12:58:15.559Z,9.48
2023-01-05T12:59:23.107Z,9.46
2023-01-05T13:00:26.611Z,9.41
2023-01-05T13:01:30.825Z,9.37
2023-01-05T13:02:35.583Z,9.38
2023-01-05T13:04:03.560Z,9.36
2023-01-05T13:05:17.035Z,9.33
2023-01-05T13:06:22.328Z,9.29
2023-01-05T13:07:39.520Z,9.29
2023-01-05T13:08:51.113Z,9.32
2023-01-05T13:10:03.977Z,9.32
2023-01-05T13:11:24.542Z,9.31
2023-01-05T13:12:26.398Z,9.31
2023-01-05T13:13:43.136Z,9.30
2023-01-05T13:14:52.918Z,9.29
2023-01-05T13:16:03.121Z,9.27
2023-01-05T13:17:07.660Z,9.27
2023-01-05T13:18:14.357Z,9.29
2023-01-05T13:19:23.125Z,9.31
2023-01-05T13:20:25.004Z,9.30
2023-01-05T13:21:28.071Z,9.30
2023-01-05T13:22:31.709Z,9.29
2023-01-05T13:23:33.472Z,9.28
2023-01-05T13:24:38.563Z,9.27
2023-01-05T13:25:46.550Z,9.28
2023-01-05T13:26:48.965Z,9.24
2023-01-05T13:27:51.029Z,9.25
2023-01-05T13:28:54.258Z,9.27
2023-01-05T13:29:59.803Z,9.27
2023-01-05T13:31:01.621Z,9.23
2023-01-05T13:32:12.697Z,9.25
2023-01-05T13:33:33.452Z,9.27
2023-01-05T13:34:35.260Z,9.25
2023-01-05T13:35:46.176Z,9.21
2023-01-05T13:37:00.203Z,9.18
2023-01-05T13:38:08.546Z,9.17
2023-01-05T13:39:13.109Z,9.15
2023-01-05T13:40:14.881Z,9.14
2023-01-05T13:41:19.773Z,9.12
2023-01-05T13:42:25.417Z,9.13
2023-01-05T13:43:41.284Z,9.13
2023-01-05T13:44:55.059Z,9.11
2023-01-05T13:46:13.791Z,9.10
2023-01-05T13:47:28.406Z,9.08
2023-01-05T13:48:57.831Z,9.03
2023-01-05T13:50:05.909Z,9.01
2023-01-05T13:51:10.849Z,8.99
2023-01-05T13:52:31.505Z,8.98
2023-01-05T13:53:37.070Z,9.00
2023-01-05T13:55:07.742Z,8.97
2023-01-05T13:56:18.017Z,8.97
2023-01-05T13:57:24.251Z,8.96
2023-01-05T13:58:46.339Z,8.96
2023-01-05T13:59:59.968Z,8.99
2023-01-05T14:01:13.400Z,9.01
2023-01-05T14:02:33.638Z,9.00
2023-01-05T14:03:37.985Z,8.97
2023-01-05T14:04:45.885Z,8.96
2023-01-05T14:05:48.258Z,8.97
2023-01-05T14:06:52.465Z,8.98
2023-01-05T14:07:55.451Z,8.97
2023-01-05T14:08:57.912Z,8.96
2023-01-05T14:09:59.971Z,8.97
2023-01-05T14:11:18.526Z,8.97
2023-01-05T14:12:20.521Z,8.98
2023-01-05T14:13:45.424Z,8.96
2023-01-05T14:15:02.503Z,8.98
2023-01-05T14:16:24.354Z,8.97
2023-01-05T14:17:55.894Z,8.94
2023-01-05T14:19:11.352Z,8.92
2023-01-05T14:20:30.274Z,8.93
2023-01-05T14:22:00.629Z,8.90
2023-01-05T14:23:04.474Z,8.93
2023-01-05T14:24:26.151Z,8.93
2023-01-05T14:25:40.467Z,8.95
2023-01-05T14:27:02.633Z,8.96
2023-01-05T14:28:18.172Z,8.93
2023-01-05T14:29:38.421Z,8.94
2023-01-05T14:30:40.297Z,8.98
2023-01-05T14:31:43.549Z,8.97
2023-01-05T14:32:45.558Z,8.99
2023-01-05T14:33:50.230Z,8.99
2023-01-05T14:35:05.815Z,9.00
2023-01-05T14:36:23.642Z,8.99